sensor_id;sensor_type;location;lat;lon;timestamp;pressure;altitude;pressure_sealevel;temperature
73734;BMP280;62039;50.000;9.064;2023-06-10T00:00:38;100008.75;;;21.95
73734;BMP280;62039;50.000;9.064;2023-06-10T00:03:05;100011.75;;;21.86
73734;BMP280;62039;50.000;9.064;2023-06-10T00:05:32;100013.53;;;21.81
73734;BMP280;62039;50.000;9.064;2023-06-10T00:07:59;100010.00;;;21.75
73734;BMP280;62039;50.000;9.064;2023-06-10T00:10:28;100020.53;;;21.70
73734;BMP280;62039;50.000;9.064;2023-06-10T00:12:55;100023.34;;;21.64
73734;BMP280;62039;50.000;9.064;2023-06-10T00:15:22;100022.72;;;21.57
73734;BMP280;62039;50.000;9.064;2023-06-10T00:17:49;100021.81;;;21.51
73734;BMP280;62039;50.000;9.064;2023-06-10T00:20:16;100024.16;;;21.47
73734;BMP280;62039;50.000;9.064;2023-06-10T00:22:43;100025.09;;;21.41
73734;BMP280;62039;50.000;9.064;2023-06-10T00:25:10;100031.13;;;21.37
73734;BMP280;62039;50.000;9.064;2023-06-10T00:27:40;100025.47;;;21.33
73734;BMP280;62039;50.000;9.064;2023-06-10T00:30:08;100031.72;;;21.27
73734;BMP280;62039;50.000;9.064;2023-06-10T00:32:36;100028.97;;;21.22
73734;BMP280;62039;50.000;9.064;2023-06-10T00:35:04;100026.22;;;21.17
73734;BMP280;62039;50.000;9.064;2023-06-10T00:37:31;100035.94;;;21.11
73734;BMP280;62039;50.000;9.064;2023-06-10T00:39:58;100026.25;;;21.05
73734;BMP280;62039;50.000;9.064;2023-06-10T00:42:25;100031.25;;;21.02
73734;BMP280;62039;50.000;9.064;2023-06-10T00:44:55;100030.31;;;20.96
73734;BMP280;62039;50.000;9.064;2023-06-10T00:47:22;100031.03;;;20.92
73734;BMP280;62039;50.000;9.064;2023-06-10T00:49:49;100024.59;;;20.88
73734;BMP280;62039;50.000;9.064;2023-06-10T00:52:18;100032.44;;;20.83
73734;BMP280;62039;50.000;9.064;2023-06-10T00:54:46;100030.50;;;20.78
73734;BMP280;62039;50.000;9.064;2023-06-10T00:57:13;100027.72;;;20.73
73734;BMP280;62039;50.000;9.064;2023-06-10T00:59:40;100029.22;;;20.69
73734;BMP280;62039;50.000;9.064;2023-06-10T01:02:11;100036.03;;;20.65
73734;BMP280;62039;50.000;9.064;2023-06-10T01:04:38;100029.00;;;20.59
73734;BMP280;62039;50.000;9.064;2023-06-10T01:07:14;100029.72;;;20.54
73734;BMP280;62039;50.000;9.064;2023-06-10T01:09:49;100026.94;;;20.49
73734;BMP280;62039;50.000;9.064;2023-06-10T01:12:22;100031.09;;;20.45
73734;BMP280;62039;50.000;9.064;2023-06-10T01:14:54;100031.81;;;20.41
73734;BMP280;62039;50.000;9.064;2023-06-10T01:17:24;100027.19;;;20.36
73734;BMP280;62039;50.000;9.064;2023-06-10T01:19:55;100039.28;;;20.32
73734;BMP280;62039;50.000;9.064;2023-06-10T01:22:26;100036.75;;;20.25
73734;BMP280;62039;50.000;9.064;2023-06-10T01:24:54;100046.22;;;20.21
73734;BMP280;62039;50.000;9.064;2023-06-10T01:27:21;100043.44;;;20.16
73734;BMP280;62039;50.000;9.064;2023-06-10T01:29:54;100042.25;;;20.12
73734;BMP280;62039;50.000;9.064;2023-06-10T01:32:26;100044.81;;;20.07
73734;BMP280;62039;50.000;9.064;2023-06-10T01:34:54;100049.75;;;20.04
73734;BMP280;62039;50.000;9.064;2023-06-10T01:37:26;100044.31;;;19.98
73734;BMP280;62039;50.000;9.064;2023-06-10T01:39:55;100049.50;;;19.93
73734;BMP280;62039;50.000;9.064;2023-06-10T01:42:23;100048.59;;;19.88
73734;BMP280;62039;50.000;9.064;2023-06-10T01:44:50;100059.84;;;19.83
73734;BMP280;62039;50.000;9.064;2023-06-10T01:47:17;100056.84;;;19.80
73734;BMP280;62039;50.000;9.064;2023-06-10T01:49:44;100057.53;;;19.75
73734;BMP280;62039;50.000;9.064;2023-06-10T01:52:11;100058.22;;;19.71
73734;BMP280;62039;50.000;9.064;2023-06-10T01:54:40;100057.88;;;19.67
73734;BMP280;62039;50.000;9.064;2023-06-10T01:57:07;100057.72;;;19.62
73734;BMP280;62039;50.000;9.064;2023-06-10T01:59:34;100061.84;;;19.58
73734;BMP280;62039;50.000;9.064;2023-06-10T02:02:02;100055.63;;;19.52
73734;BMP280;62039;50.000;9.064;2023-06-10T02:04:29;100052.56;;;19.49
73734;BMP280;62039;50.000;9.064;2023-06-10T02:06:56;100054.06;;;19.45
73734;BMP280;62039;50.000;9.064;2023-06-10T02:09:22;100050.28;;;19.41
73734;BMP280;62039;50.000;9.064;2023-06-10T02:11:52;100058.66;;;19.38
73734;BMP280;62039;50.000;9.064;2023-06-10T02:14:19;100058.72;;;19.31
73734;BMP280;62039;50.000;9.064;2023-06-10T02:16:46;100063.91;;;19.26
73734;BMP280;62039;50.000;9.064;2023-06-10T02:19:13;100063.53;;;19.23
73734;BMP280;62039;50.000;9.064;2023-06-10T02:21:40;100066.03;;;19.17
73734;BMP280;62039;50.000;9.064;2023-06-10T02:24:07;100065.69;;;19.14
73734;BMP280;62039;50.000;9.064;2023-06-10T02:26:35;100058.41;;;19.09
73734;BMP280;62039;50.000;9.064;2023-06-10T02:29:04;100065.78;;;19.07
73734;BMP280;62039;50.000;9.064;2023-06-10T02:31:31;100058.47;;;19.03
73734;BMP280;62039;50.000;9.064;2023-06-10T02:33:58;100059.97;;;18.99
73734;BMP280;62039;50.000;9.064;2023-06-10T02:36:25;100056.94;;;18.95
73734;BMP280;62039;50.000;9.064;2023-06-10T02:38:52;100068.78;;;18.93
73734;BMP280;62039;50.000;9.064;2023-06-10T02:41:19;100058.81;;;18.88
73734;BMP280;62039;50.000;9.064;2023-06-10T02:43:46;100065.59;;;18.84
73734;BMP280;62039;50.000;9.064;2023-06-10T02:46:15;100066.84;;;18.81
73734;BMP280;62039;50.000;9.064;2023-06-10T02:48:43;100070.75;;;18.79
73734;BMP280;62039;50.000;9.064;2023-06-10T02:51:10;100067.94;;;18.74
73734;BMP280;62039;50.000;9.064;2023-06-10T02:53:37;100071.03;;;18.71
73734;BMP280;62039;50.000;9.064;2023-06-10T02:56:04;100075.16;;;18.67
73734;BMP280;62039;50.000;9.064;2023-06-10T02:58:31;100071.31;;;18.63
73734;BMP280;62039;50.000;9.064;2023-06-10T03:00:58;100076.25;;;18.59
73734;BMP280;62039;50.000;9.064;2023-06-10T03:03:28;100074.03;;;18.56
73734;BMP280;62039;50.000;9.064;2023-06-10T03:05:55;100072.03;;;18.52
73734;BMP280;62039;50.000;9.064;2023-06-10T03:08:22;100083.03;;;18.49
73734;BMP280;62039;50.000;9.064;2023-06-10T03:10:49;100072.53;;;18.42
73734;BMP280;62039;50.000;9.064;2023-06-10T03:13:16;100069.72;;;18.37
73734;BMP280;62039;50.000;9.064;2023-06-10T03:15:43;100067.75;;;18.32
73734;BMP280;62039;50.000;9.064;2023-06-10T03:18:10;100076.09;;;18.29
73734;BMP280;62039;50.000;9.064;2023-06-10T03:20:39;100074.69;;;18.27
73734;BMP280;62039;50.000;9.064;2023-06-10T03:23:06;100079.59;;;18.23
73734;BMP280;62039;50.000;9.064;2023-06-10T03:25:33;100087.16;;;18.20
73734;BMP280;62039;50.000;9.064;2023-06-10T03:28:00;100092.66;;;18.18
73734;BMP280;62039;50.000;9.064;2023-06-10T03:30:27;100092.03;;;18.16
73734;BMP280;62039;50.000;9.064;2023-06-10T03:32:54;100102.25;;;18.13
73734;BMP280;62039;50.000;9.064;2023-06-10T03:35:21;100101.66;;;18.11
73734;BMP280;62039;50.000;9.064;2023-06-10T03:37:51;100106.13;;;18.10
73734;BMP280;62039;50.000;9.064;2023-06-10T03:40:18;100107.59;;;18.06
73734;BMP280;62039;50.000;9.064;2023-06-10T03:42:45;100106.97;;;18.04
73734;BMP280;62039;50.000;9.064;2023-06-10T03:45:11;100107.41;;;18.01
73734;BMP280;62039;50.000;9.064;2023-06-10T03:47:39;100103.56;;;17.97
73734;BMP280;62039;50.000;9.064;2023-06-10T03:50:06;100104.78;;;17.94
73734;BMP280;62039;50.000;9.064;2023-06-10T03:52:35;100108.69;;;17.92
73734;BMP280;62039;50.000;9.064;2023-06-10T03:55:06;100107.28;;;17.89
73734;BMP280;62039;50.000;9.064;2023-06-10T03:57:33;100104.28;;;17.86
73734;BMP280;62039;50.000;9.064;2023-06-10T04:00:00;100111.59;;;17.84
73734;BMP280;62039;50.000;9.064;2023-06-10T04:02:27;100109.16;;;17.82
73734;BMP280;62039;50.000;9.064;2023-06-10T04:04:54;100105.09;;;17.80
73734;BMP280;62039;50.000;9.064;2023-06-10T04:07:21;100106.13;;;17.79
73734;BMP280;62039;50.000;9.064;2023-06-10T04:09:48;100103.50;;;17.79
73734;BMP280;62039;50.000;9.064;2023-06-10T04:12:18;100101.88;;;17.78
73734;BMP280;62039;50.000;9.064;2023-06-10T04:14:45;100107.38;;;17.76
73734;BMP280;62039;50.000;9.064;2023-06-10T04:17:12;100109.81;;;17.78
73734;BMP280;62039;50.000;9.064;2023-06-10T04:19:39;100101.88;;;17.78
73734;BMP280;62039;50.000;9.064;2023-06-10T04:22:06;100108.78;;;17.79
73734;BMP280;62039;50.000;9.064;2023-06-10T04:24:33;100106.50;;;17.82
73734;BMP280;62039;50.000;9.064;2023-06-10T04:26:59;100114.22;;;17.84
73734;BMP280;62039;50.000;9.064;2023-06-10T04:29:29;100121.72;;;17.87
73734;BMP280;62039;50.000;9.064;2023-06-10T04:31:56;100114.38;;;17.89
73734;BMP280;62039;50.000;9.064;2023-06-10T04:34:23;100111.34;;;17.92
73734;BMP280;62039;50.000;9.064;2023-06-10T04:36:50;100118.81;;;17.95
73734;BMP280;62039;50.000;9.064;2023-06-10T04:39:17;100125.31;;;17.99
73734;BMP280;62039;50.000;9.064;2023-06-10T04:41:44;100135.03;;;18.05
73734;BMP280;62039;50.000;9.064;2023-06-10T04:44:11;100131.13;;;18.08
73734;BMP280;62039;50.000;9.064;2023-06-10T04:46:40;100129.47;;;18.13
73734;BMP280;62039;50.000;9.064;2023-06-10T04:49:08;100132.50;;;18.17
73734;BMP280;62039;50.000;9.064;2023-06-10T04:51:34;100126.34;;;18.23
73734;BMP280;62039;50.000;9.064;2023-06-10T04:54:01;100123.09;;;18.27
73734;BMP280;62039;50.000;9.064;2023-06-10T04:56:28;100120.63;;;18.32
73734;BMP280;62039;50.000;9.064;2023-06-10T04:58:55;100124.03;;;18.39
73734;BMP280;62039;50.000;9.064;2023-06-10T05:01:23;100117.28;;;18.43
73734;BMP280;62039;50.000;9.064;2023-06-10T05:03:52;100117.00;;;18.52
73734;BMP280;62039;50.000;9.064;2023-06-10T05:06:19;100117.97;;;18.57
73734;BMP280;62039;50.000;9.064;2023-06-10T05:08:46;100114.22;;;18.65
73734;BMP280;62039;50.000;9.064;2023-06-10T05:11:13;100112.34;;;18.72
73734;BMP280;62039;50.000;9.064;2023-06-10T05:13:41;100117.56;;;18.78
73734;BMP280;62039;50.000;9.064;2023-06-10T05:16:08;100115.44;;;18.87
73734;BMP280;62039;50.000;9.064;2023-06-10T05:18:35;100116.19;;;18.94
73734;BMP280;62039;50.000;9.064;2023-06-10T05:21:05;100122.00;;;19.03
73734;BMP280;62039;50.000;9.064;2023-06-10T05:23:32;100112.38;;;19.08
73734;BMP280;62039;50.000;9.064;2023-06-10T05:25:59;100118.38;;;19.15
73734;BMP280;62039;50.000;9.064;2023-06-10T05:28:26;100115.66;;;19.22
73734;BMP280;62039;50.000;9.064;2023-06-10T05:30:53;100115.38;;;19.30
73734;BMP280;62039;50.000;9.064;2023-06-10T05:33:20;100115.06;;;19.38
73734;BMP280;62039;50.000;9.064;2023-06-10T05:35:47;100117.41;;;19.46
73734;BMP280;62039;50.000;9.064;2023-06-10T05:38:16;100117.91;;;19.55
73734;BMP280;62039;50.000;9.064;2023-06-10T05:40:43;100127.19;;;19.64
73734;BMP280;62039;50.000;9.064;2023-06-10T05:43:10;100125.63;;;19.75
73734;BMP280;62039;50.000;9.064;2023-06-10T05:45:37;100133.63;;;19.86
73734;BMP280;62039;50.000;9.064;2023-06-10T05:48:05;100125.69;;;19.98
73734;BMP280;62039;50.000;9.064;2023-06-10T05:50:32;100124.91;;;20.09
73734;BMP280;62039;50.000;9.064;2023-06-10T05:52:59;100126.81;;;20.20
73734;BMP280;62039;50.000;9.064;2023-06-10T05:55:28;100125.78;;;20.33
73734;BMP280;62039;50.000;9.064;2023-06-10T05:57:59;100129.72;;;20.42
73734;BMP280;62039;50.000;9.064;2023-06-10T06:00:26;100126.25;;;20.53
73734;BMP280;62039;50.000;9.064;2023-06-10T06:02:53;100123.59;;;20.65
73734;BMP280;62039;50.000;9.064;2023-06-10T06:05:20;100121.53;;;20.79
73734;BMP280;62039;50.000;9.064;2023-06-10T06:07:48;100119.66;;;20.91
73734;BMP280;62039;50.000;9.064;2023-06-10T06:10:16;100115.72;;;21.05
73734;BMP280;62039;50.000;9.064;2023-06-10T06:12:46;100108.06;;;21.20
73734;BMP280;62039;50.000;9.064;2023-06-10T06:15:13;100122.72;;;21.34
73734;BMP280;62039;50.000;9.064;2023-06-10T06:17:40;100120.59;;;21.48
73734;BMP280;62039;50.000;9.064;2023-06-10T06:20:08;100119.81;;;21.64
73734;BMP280;62039;50.000;9.064;2023-06-10T06:22:35;100108.34;;;21.75
73734;BMP280;62039;50.000;9.064;2023-06-10T06:25:02;100114.41;;;21.87
73734;BMP280;62039;50.000;9.064;2023-06-10T06:27:30;100109.63;;;22.01
73734;BMP280;62039;50.000;9.064;2023-06-10T06:30:00;100106.41;;;22.16
73734;BMP280;62039;50.000;9.064;2023-06-10T06:32:27;100104.47;;;22.28
73734;BMP280;62039;50.000;9.064;2023-06-10T06:34:54;100102.84;;;22.44
73734;BMP280;62039;50.000;9.064;2023-06-10T06:37:22;100105.72;;;22.59
73734;BMP280;62039;50.000;9.064;2023-06-10T06:39:50;100107.81;;;22.74
73734;BMP280;62039;50.000;9.064;2023-06-10T06:42:17;100109.88;;;22.88
73734;BMP280;62039;50.000;9.064;2023-06-10T06:44:44;100102.09;;;23.03
73734;BMP280;62039;50.000;9.064;2023-06-10T06:47:14;100103.34;;;23.18
73734;BMP280;62039;50.000;9.064;2023-06-10T06:49:41;100110.97;;;23.31
73734;BMP280;62039;50.000;9.064;2023-06-10T06:52:08;100110.56;;;23.44
73734;BMP280;62039;50.000;9.064;2023-06-10T06:54:35;100116.88;;;23.60
73734;BMP280;62039;50.000;9.064;2023-06-10T06:57:02;100115.41;;;23.74
73734;BMP280;62039;50.000;9.064;2023-06-10T06:59:29;100114.75;;;23.88
73734;BMP280;62039;50.000;9.064;2023-06-10T07:01:56;100115.94;;;24.03
73734;BMP280;62039;50.000;9.064;2023-06-10T07:04:25;100112.63;;;24.17
73734;BMP280;62039;50.000;9.064;2023-06-10T07:06:52;100113.00;;;24.31
73734;BMP280;62039;50.000;9.064;2023-06-10T07:09:19;100114.97;;;24.46
73734;BMP280;62039;50.000;9.064;2023-06-10T07:11:46;100107.84;;;24.61
73734;BMP280;62039;50.000;9.064;2023-06-10T07:14:13;100102.88;;;24.75
73734;BMP280;62039;50.000;9.064;2023-06-10T07:16:40;100105.63;;;24.90
73734;BMP280;62039;50.000;9.064;2023-06-10T07:19:07;100107.56;;;25.05
73734;BMP280;62039;50.000;9.064;2023-06-10T07:21:37;100113.50;;;25.22
73734;BMP280;62039;50.000;9.064;2023-06-10T07:24:04;100107.41;;;25.37
73734;BMP280;62039;50.000;9.064;2023-06-10T07:26:31;100111.72;;;25.53
73734;BMP280;62039;50.000;9.064;2023-06-10T07:28:59;100108.53;;;25.66
73734;BMP280;62039;50.000;9.064;2023-06-10T07:31:25;100113.09;;;25.81
73734;BMP280;62039;50.000;9.064;2023-06-10T07:33:53;100109.94;;;25.94
73734;BMP280;62039;50.000;9.064;2023-06-10T07:36:20;100114.75;;;26.07
73734;BMP280;62039;50.000;9.064;2023-06-10T07:38:49;100115.81;;;26.22
73734;BMP280;62039;50.000;9.064;2023-06-10T07:41:17;100111.53;;;26.31
73734;BMP280;62039;50.000;9.064;2023-06-10T07:43:44;100112.03;;;26.43
73734;BMP280;62039;50.000;9.064;2023-06-10T07:46:10;100114.16;;;26.56
73734;BMP280;62039;50.000;9.064;2023-06-10T07:48:38;100117.63;;;26.67
73734;BMP280;62039;50.000;9.064;2023-06-10T07:51:05;100118.41;;;26.77
73734;BMP280;62039;50.000;9.064;2023-06-10T07:53:32;100113.28;;;26.91
73734;BMP280;62039;50.000;9.064;2023-06-10T07:56:01;100115.34;;;27.04
73734;BMP280;62039;50.000;9.064;2023-06-10T07:58:28;100111.28;;;27.17
73734;BMP280;62039;50.000;9.064;2023-06-10T08:00:55;100114.97;;;27.31
73734;BMP280;62039;50.000;9.064;2023-06-10T08:03:22;100108.72;;;27.46
